sensor_id;sensor_type;location;lat;lon;timestamp;temperature;humidity
10300;DHT22;5195;48.562;9.192;2022-12-24T00:00:59;12.70;60.20
10300;DHT22;5195;48.562;9.192;2022-12-24T00:03:24;12.90;59.50
10300;DHT22;5195;48.562;9.192;2022-12-24T00:05:50;12.80;60.00
10300;DHT22;5195;48.562;9.192;2022-12-24T00:08:16;12.60;60.40
10300;DHT22;5195;48.562;9.192;2022-12-24T00:10:42;12.70;60.50
10300;DHT22;5195;48.562;9.192;2022-12-24T00:13:08;12.60;61.50
10300;DHT22;5195;48.562;9.192;2022-12-24T00:15:34;12.60;60.90
10300;DHT22;5195;48.562;9.192;2022-12-24T00:17:59;12.30;61.80
10300;DHT22;5195;48.562;9.192;2022-12-24T00:20:25;12.40;61.50
10300;DHT22;5195;48.562;9.192;2022-12-24T00:22:51;12.60;60.70
10300;DHT22;5195;48.562;9.192;2022-12-24T00:25:17;12.60;60.70
10300;DHT22;5195;48.562;9.192;2022-12-24T00:27:42;12.30;61.50
10300;DHT22;5195;48.562;9.192;2022-12-24T00:30:08;12.10;62.50
10300;DHT22;5195;48.562;9.192;2022-12-24T00:32:34;12.30;61.80
10300;DHT22;5195;48.562;9.192;2022-12-24T00:34:59;12.50;60.70
10300;DHT22;5195;48.562;9.192;2022-12-24T00:37:25;12.50;61.00
10300;DHT22;5195;48.562;9.192;2022-12-24T00:39:50;12.60;60.40
10300;DHT22;5195;48.562;9.192;2022-12-24T00:42:16;12.80;60.20
10300;DHT22;5195;48.562;9.192;2022-12-24T00:44:42;12.70;59.90
10300;DHT22;5195;48.562;9.192;2022-12-24T00:47:07;12.40;60.70
10300;DHT22;5195;48.562;9.192;2022-12-24T00:49:33;12.30;60.90
10300;DHT22;5195;48.562;9.192;2022-12-24T00:51:59;12.30;60.70
10300;DHT22;5195;48.562;9.192;2022-12-24T00:54:25;12.40;60.20
10300;DHT22;5195;48.562;9.192;2022-12-24T00:56:50;12.30;60.70
10300;DHT22;5195;48.562;9.192;2022-12-24T00:59:16;12.10;61.40
10300;DHT22;5195;48.562;9.192;2022-12-24T01:01:41;12.20;60.40
10300;DHT22;5195;48.562;9.192;2022-12-24T01:04:08;12.30;60.30
10300;DHT22;5195;48.562;9.192;2022-12-24T01:06:53;12.30;60.30
10300;DHT22;5195;48.562;9.192;2022-12-24T01:09:19;11.80;62.70
10300;DHT22;5195;48.562;9.192;2022-12-24T01:11:45;11.80;62.00
10300;DHT22;5195;48.562;9.192;2022-12-24T01:14:10;11.60;62.70
10300;DHT22;5195;48.562;9.192;2022-12-24T01:16:36;11.80;61.80
10300;DHT22;5195;48.562;9.192;2022-12-24T01:19:02;12.10;60.60
10300;DHT22;5195;48.562;9.192;2022-12-24T01:21:27;12.10;60.70
10300;DHT22;5195;48.562;9.192;2022-12-24T01:23:53;12.20;60.20
10300;DHT22;5195;48.562;9.192;2022-12-24T01:26:18;12.10;60.50
10300;DHT22;5195;48.562;9.192;2022-12-24T01:28:44;11.80;61.20
10300;DHT22;5195;48.562;9.192;2022-12-24T01:31:14;12.00;60.70
10300;DHT22;5195;48.562;9.192;2022-12-24T01:33:38;11.90;60.80
10300;DHT22;5195;48.562;9.192;2022-12-24T01:36:04;11.70;61.50
10300;DHT22;5195;48.562;9.192;2022-12-24T01:38:30;11.50;62.10
10300;DHT22;5195;48.562;9.192;2022-12-24T01:40:56;11.60;62.40
10300;DHT22;5195;48.562;9.192;2022-12-24T01:43:41;11.60;61.70
10300;DHT22;5195;48.562;9.192;2022-12-24T01:46:25;11.60;61.80
10300;DHT22;5195;48.562;9.192;2022-12-24T01:48:53;11.70;61.00
10300;DHT22;5195;48.562;9.192;2022-12-24T01:51:21;12.10;60.60
10300;DHT22;5195;48.562;9.192;2022-12-24T01:53:44;12.00;60.80
10300;DHT22;5195;48.562;9.192;2022-12-24T01:56:09;12.10;59.90
10300;DHT22;5195;48.562;9.192;2022-12-24T01:58:34;12.30;59.00
10300;DHT22;5195;48.562;9.192;2022-12-24T02:01:00;12.50;58.00
10300;DHT22;5195;48.562;9.192;2022-12-24T02:03:25;12.40;58.40
10300;DHT22;5195;48.562;9.192;2022-12-24T02:05:51;12.00;59.30
10300;DHT22;5195;48.562;9.192;2022-12-24T02:08:16;11.80;60.10
10300;DHT22;5195;48.562;9.192;2022-12-24T02:10:42;11.90;59.30
10300;DHT22;5195;48.562;9.192;2022-12-24T02:13:08;12.20;58.30
10300;DHT22;5195;48.562;9.192;2022-12-24T02:18:34;12.30;58.10
10300;DHT22;5195;48.562;9.192;2022-12-24T02:31:41;11.80;59.40
10300;DHT22;5195;48.562;9.192;2022-12-24T02:34:14;11.90;58.60
10300;DHT22;5195;48.562;9.192;2022-12-24T02:36:41;12.30;57.80
10300;DHT22;5195;48.562;9.192;2022-12-24T02:39:15;12.20;58.30
10300;DHT22;5195;48.562;9.192;2022-12-24T02:41:36;12.30;57.60
10300;DHT22;5195;48.562;9.192;2022-12-24T02:44:22;12.40;57.70
10300;DHT22;5195;48.562;9.192;2022-12-24T02:46:47;12.30;57.60
10300;DHT22;5195;48.562;9.192;2022-12-24T02:49:14;12.30;58.20
10300;DHT22;5195;48.562;9.192;2022-12-24T02:51:40;12.30;58.10
10300;DHT22;5195;48.562;9.192;2022-12-24T02:54:06;12.30;58.00
10300;DHT22;5195;48.562;9.192;2022-12-24T02:59:33;11.90;59.50
10300;DHT22;5195;48.562;9.192;2022-12-24T03:02:05;11.70;60.80
10300;DHT22;5195;48.562;9.192;2022-12-24T03:09:40;12.30;58.60
10300;DHT22;5195;48.562;9.192;2022-12-24T03:12:05;12.60;57.60
10300;DHT22;5195;48.562;9.192;2022-12-24T03:14:28;12.80;56.90
10300;DHT22;5195;48.562;9.192;2022-12-24T03:16:55;12.70;57.40
10300;DHT22;5195;48.562;9.192;2022-12-24T03:19:19;12.50;58.30
10300;DHT22;5195;48.562;9.192;2022-12-24T03:21:45;12.50;57.80
10300;DHT22;5195;48.562;9.192;2022-12-24T03:24:11;12.50;58.20
10300;DHT22;5195;48.562;9.192;2022-12-24T03:26:37;12.10;59.50
10300;DHT22;5195;48.562;9.192;2022-12-24T03:29:03;12.00;59.40
10300;DHT22;5195;48.562;9.192;2022-12-24T03:31:38;12.10;59.10
10300;DHT22;5195;48.562;9.192;2022-12-24T03:33:54;12.10;59.10
10300;DHT22;5195;48.562;9.192;2022-12-24T03:36:20;12.20;59.20
10300;DHT22;5195;48.562;9.192;2022-12-24T03:38:46;11.90;60.10
10300;DHT22;5195;48.562;9.192;2022-12-24T03:41:12;11.90;60.00
10300;DHT22;5195;48.562;9.192;2022-12-24T03:43:37;12.10;59.30
10300;DHT22;5195;48.562;9.192;2022-12-24T03:46:04;12.40;58.40
10300;DHT22;5195;48.562;9.192;2022-12-24T03:48:28;12.40;58.60
10300;DHT22;5195;48.562;9.192;2022-12-24T03:50:55;12.00;60.00
10300;DHT22;5195;48.562;9.192;2022-12-24T03:53:20;11.90;59.90
10300;DHT22;5195;48.562;9.192;2022-12-24T03:55:46;11.80;60.50
10300;DHT22;5195;48.562;9.192;2022-12-24T03:58:12;12.00;59.60
10300;DHT22;5195;48.562;9.192;2022-12-24T04:00:38;11.90;60.50
10300;DHT22;5195;48.562;9.192;2022-12-24T04:03:03;11.90;60.20
10300;DHT22;5195;48.562;9.192;2022-12-24T04:05:30;11.90;59.50
10300;DHT22;5195;48.562;9.192;2022-12-24T04:07:55;11.90;59.40
10300;DHT22;5195;48.562;9.192;2022-12-24T04:10:21;12.00;59.60
10300;DHT22;5195;48.562;9.192;2022-12-24T04:12:46;12.20;58.70
10300;DHT22;5195;48.562;9.192;2022-12-24T04:15:12;12.50;57.60
10300;DHT22;5195;48.562;9.192;2022-12-24T04:17:38;12.60;57.20
10300;DHT22;5195;48.562;9.192;2022-12-24T04:20:04;12.60;57.20
10300;DHT22;5195;48.562;9.192;2022-12-24T04:22:30;12.40;58.00
10300;DHT22;5195;48.562;9.192;2022-12-24T04:24:55;12.10;58.70
10300;DHT22;5195;48.562;9.192;2022-12-24T04:27:22;11.70;59.80
10300;DHT22;5195;48.562;9.192;2022-12-24T04:29:47;11.70;59.80
10300;DHT22;5195;48.562;9.192;2022-12-24T04:32:13;11.60;60.30
10300;DHT22;5195;48.562;9.192;2022-12-24T04:34:38;11.40;60.70
10300;DHT22;5195;48.562;9.192;2022-12-24T04:37:04;11.30;61.00
10300;DHT22;5195;48.562;9.192;2022-12-24T04:39:30;11.60;60.00
10300;DHT22;5195;48.562;9.192;2022-12-24T04:41:55;11.60;59.90
10300;DHT22;5195;48.562;9.192;2022-12-24T04:44:21;11.80;59.00
10300;DHT22;5195;48.562;9.192;2022-12-24T04:46:46;11.80;59.10
10300;DHT22;5195;48.562;9.192;2022-12-24T04:49:13;11.40;59.90
10300;DHT22;5195;48.562;9.192;2022-12-24T04:51:38;11.40;60.20
10300;DHT22;5195;48.562;9.192;2022-12-24T04:54:04;11.60;59.60
10300;DHT22;5195;48.562;9.192;2022-12-24T04:56:31;12.20;57.90
10300;DHT22;5195;48.562;9.192;2022-12-24T04:58:56;12.10;57.80
10300;DHT22;5195;48.562;9.192;2022-12-24T05:01:22;12.00;58.10
10300;DHT22;5195;48.562;9.192;2022-12-24T05:03:47;11.70;58.80
10300;DHT22;5195;48.562;9.192;2022-12-24T05:06:14;12.10;57.90
10300;DHT22;5195;48.562;9.192;2022-12-24T05:08:39;12.10;57.90
10300;DHT22;5195;48.562;9.192;2022-12-24T05:11:05;12.00;58.20
10300;DHT22;5195;48.562;9.192;2022-12-24T05:13:30;11.70;58.90
10300;DHT22;5195;48.562;9.192;2022-12-24T05:15:55;11.40;59.80
10300;DHT22;5195;48.562;9.192;2022-12-24T05:18:22;11.60;59.90
10300;DHT22;5195;48.562;9.192;2022-12-24T05:20:48;11.60;59.90
10300;DHT22;5195;48.562;9.192;2022-12-24T05:23:17;11.70;59.10
10300;DHT22;5195;48.562;9.192;2022-12-24T05:26:26;12.00;58.10
10300;DHT22;5195;48.562;9.192;2022-12-24T05:28:58;11.90;58.30
10300;DHT22;5195;48.562;9.192;2022-12-24T05:31:33;12.00;57.80
10300;DHT22;5195;48.562;9.192;2022-12-24T05:34:09;12.50;57.40
10300;DHT22;5195;48.562;9.192;2022-12-24T05:36:45;12.40;56.80
10300;DHT22;5195;48.562;9.192;2022-12-24T05:39:20;12.60;56.50
10300;DHT22;5195;48.562;9.192;2022-12-24T05:41:56;12.30;56.90
10300;DHT22;5195;48.562;9.192;2022-12-24T05:44:31;12.20;57.00
10300;DHT22;5195;48.562;9.192;2022-12-24T05:47:07;12.00;57.70
10300;DHT22;5195;48.562;9.192;2022-12-24T05:49:43;12.00;57.70
10300;DHT22;5195;48.562;9.192;2022-12-24T05:52:18;11.80;58.10
10300;DHT22;5195;48.562;9.192;2022-12-24T05:54:55;12.10;57.50
10300;DHT22;5195;48.562;9.192;2022-12-24T05:57:30;12.00;57.40
10300;DHT22;5195;48.562;9.192;2022-12-24T06:00:06;12.20;56.90
10300;DHT22;5195;48.562;9.192;2022-12-24T06:02:42;12.00;57.40
10300;DHT22;5195;48.562;9.192;2022-12-24T06:05:17;11.60;58.30
10300;DHT22;5195;48.562;9.192;2022-12-24T06:07:53;11.30;59.20
10300;DHT22;5195;48.562;9.192;2022-12-24T06:10:28;11.30;59.20
10300;DHT22;5195;48.562;9.192;2022-12-24T06:13:04;11.30;59.50
10300;DHT22;5195;48.562;9.192;2022-12-24T06:15:39;11.00;60.10
10300;DHT22;5195;48.562;9.192;2022-12-24T06:18:15;11.20;60.00
10300;DHT22;5195;48.562;9.192;2022-12-24T06:20:52;10.90;60.70
10300;DHT22;5195;48.562;9.192;2022-12-24T06:23:28;10.90;60.70
10300;DHT22;5195;48.562;9.192;2022-12-24T06:26:04;11.10;60.30
10300;DHT22;5195;48.562;9.192;2022-12-24T06:28:39;11.10;60.30
10300;DHT22;5195;48.562;9.192;2022-12-24T06:31:16;10.90;60.90
10300;DHT22;5195;48.562;9.192;2022-12-24T06:33:51;11.10;60.30
10300;DHT22;5195;48.562;9.192;2022-12-24T06:36:26;11.40;59.30
10300;DHT22;5195;48.562;9.192;2022-12-24T06:39:02;11.40;58.90
10300;DHT22;5195;48.562;9.192;2022-12-24T06:41:37;11.40;58.90
10300;DHT22;5195;48.562;9.192;2022-12-24T06:44:13;11.30;59.20
10300;DHT22;5195;48.562;9.192;2022-12-24T06:46:49;11.40;58.80
10300;DHT22;5195;48.562;9.192;2022-12-24T06:49:24;11.60;58.00
10300;DHT22;5195;48.562;9.192;2022-12-24T06:52:00;11.50;58.30
10300;DHT22;5195;48.562;9.192;2022-12-24T06:54:35;11.20;59.10
10300;DHT22;5195;48.562;9.192;2022-12-24T06:57:11;11.30;58.80
10300;DHT22;5195;48.562;9.192;2022-12-24T06:59:47;11.20;59.00
10300;DHT22;5195;48.562;9.192;2022-12-24T07:02:22;11.30;58.50
10300;DHT22;5195;48.562;9.192;2022-12-24T07:04:58;11.60;57.80
10300;DHT22;5195;48.562;9.192;2022-12-24T07:07:36;11.50;58.20
10300;DHT22;5195;48.562;9.192;2022-12-24T07:10:09;11.20;59.00
10300;DHT22;5195;48.562;9.192;2022-12-24T07:12:45;11.40;58.60
10300;DHT22;5195;48.562;9.192;2022-12-24T07:15:20;11.70;57.90
10300;DHT22;5195;48.562;9.192;2022-12-24T07:17:56;11.60;58.20
10300;DHT22;5195;48.562;9.192;2022-12-24T07:20:31;11.30;58.80
10300;DHT22;5195;48.562;9.192;2022-12-24T07:23:07;11.40;58.30
10300;DHT22;5195;48.562;9.192;2022-12-24T07:25:42;11.70;57.50
10300;DHT22;5195;48.562;9.192;2022-12-24T07:28:18;11.60;57.80
10300;DHT22;5195;48.562;9.192;2022-12-24T07:30:57;11.40;58.70
10300;DHT22;5195;48.562;9.192;2022-12-24T07:33:33;11.10;59.30
10300;DHT22;5195;48.562;9.192;2022-12-24T07:36:09;11.00;60.00
10300;DHT22;5195;48.562;9.192;2022-12-24T07:38:45;10.70;60.80
10300;DHT22;5195;48.562;9.192;2022-12-24T07:41:20;10.60;60.70
10300;DHT22;5195;48.562;9.192;2022-12-24T07:43:56;10.90;59.60
10300;DHT22;5195;48.562;9.192;2022-12-24T07:46:32;10.80;59.80
10300;DHT22;5195;48.562;9.192;2022-12-24T07:49:08;10.80;60.00
10300;DHT22;5195;48.562;9.192;2022-12-24T07:51:43;11.10;59.00
10300;DHT22;5195;48.562;9.192;2022-12-24T07:54:19;11.50;57.90
10300;DHT22;5195;48.562;9.192;2022-12-24T07:56:54;11.50;58.20
10300;DHT22;5195;48.562;9.192;2022-12-24T07:59:30;11.30;58.80
10300;DHT22;5195;48.562;9.192;2022-12-24T08:02:08;11.40;58.00
10300;DHT22;5195;48.562;9.192;2022-12-24T08:04:42;11.40;58.30
10300;DHT22;5195;48.562;9.192;2022-12-24T08:07:18;11.20;58.80
10300;DHT22;5195;48.562;9.192;2022-12-24T08:09:53;11.10;59.50
10300;DHT22;5195;48.562;9.192;2022-12-24T08:12:29;10.90;60.00
10300;DHT22;5195;48.562;9.192;2022-12-24T08:15:05;11.20;58.90
10300;DHT22;5195;48.562;9.192;2022-12-24T08:17:40;11.30;59.10
10300;DHT22;5195;48.562;9.192;2022-12-24T08:20:16;11.50;58.20
10300;DHT22;5195;48.562;9.192;2022-12-24T08:22:52;11.80;57.20
10300;DHT22;5195;48.562;9.192;2022-12-24T08:25:27;11.80;57.50
10300;DHT22;5195;48.562;9.192;2022-12-24T08:28:03;11.90;57.10
10300;DHT22;5195;48.562;9.192;2022-12-24T08:30:38;11.80;57.50
10300;DHT22;5195;48.562;9.192;2022-12-24T08:33:14;11.60;58.20
10300;DHT22;5195;48.562;9.192;2022-12-24T08:35:51;11.70;57.50
10300;DHT22;5195;48.562;9.192;2022-12-24T08:38:25;11.70;57.90
10300;DHT22;5195;48.562;9.192;2022-12-24T08:41:01;11.50;58.50
10300;DHT22;5195;48.562;9.192;2022-12-24T08:43:36;11.30;59.10
10300;DHT22;5195;48.562;9.192;2022-12-24T08:46:12;11.20;59.60
10300;DHT22;5195;48.562;9.192;2022-12-24T08:48:47;11.10;60.00
10300;DHT22;5195;48.562;9.192;2022-12-24T08:51:23;11.00;60.40
10300;DHT22;5195;48.562;9.192;2022-12-24T08:53:58;11.30;59.00
10300;DHT22;5195;48.562;9.192;2022-12-24T08:56:35;11.70;58.00
10300;DHT22;5195;48.562;9.192;2022-12-24T08:59:10;11.70;58.00
10300;DHT22;5195;48.562;9.192;2022-12-24T09:01:46;11.90;57.00
10300;DHT22;5195;48.562;9.192;2022-12-24T09:04:22;12.20;56.00
10300;DHT22;5195;48.562;9.192;2022-12-24T09:06:57;12.20;56.50
10300;DHT22;5195;48.562;9.192;2022-12-24T09:09:34;12.20;56.30
10300;DHT22;5195;48.562;9.192;2022-12-24T09:12:09;12.20;56.30
10300;DHT22;5195;48.562;9.192;2022-12-24T09:14:45;12.40;55.20
10300;DHT22;5195;48.562;9.192;2022-12-24T09:17:20;12.30;55.70
10300;DHT22;5195;48.562;9.192;2022-12-24T09:19:56;12.20;56.50
10300;DHT22;5195;48.562;9.192;2022-12-24T09:22:35;12.30;55.10
10300;DHT22;5195;48.562;9.192;2022-12-24T09:25:10;12.70;54.30
10300;DHT22;5195;48.562;9.192;2022-12-24T09:27:47;12.70;54.30
10300;DHT22;5195;48.562;9.192;2022-12-24T09:30:22;12.70;54.30
10300;DHT22;5195;48.562;9.192;2022-12-24T09:32:58;12.60;55.00
10300;DHT22;5195;48.562;9.192;2022-12-24T09:35:36;12.50;55.60
10300;DHT22;5195;48.562;9.192;2022-12-24T09:38:10;12.50;54.90
10300;DHT22;5195;48.562;9.192;2022-12-24T09:40:45;12.80;54.30
10300;DHT22;5195;48.562;9.192;2022-12-24T09:43:24;12.60;55.70
10300;DHT22;5195;48.562;9.192;2022-12-24T09:46:11;12.50;55.60
10300;DHT22;5195;48.562;9.192;2022-12-24T09:48:46;12.50;56.20
10300;DHT22;5195;48.562;9.192;2022-12-24T09:51:26;12.40;55.30
10300;DHT22;5195;48.562;9.192;2022-12-24T09:56:39;13.00;54.20
10300;DHT22;5195;48.562;9.192;2022-12-24T09:59:20;13.20;53.70
10300;DHT22;5195;48.562;9.192;2022-12-24T10:01:49;13.00;54.20
10300;DHT22;5195;48.562;9.192;2022-12-24T10:04:27;13.00;53.90
10300;DHT22;5195;48.562;9.192;2022-12-24T10:07:08;13.00;55.00
10300;DHT22;5195;48.562;9.192;2022-12-24T10:12:50;13.30;54.60
10300;DHT22;5195;48.562;9.192;2022-12-24T10:15:56;13.70;54.00
10300;DHT22;5195;48.562;9.192;2022-12-24T10:18:58;13.70;54.50
10300;DHT22;5195;48.562;9.192;2022-12-24T10:24:32;14.20;52.30
10300;DHT22;5195;48.562;9.192;2022-12-24T10:27:13;14.40;53.10
10300;DHT22;5195;48.562;9.192;2022-12-24T10:29:54;14.10;54.60
10300;DHT22;5195;48.562;9.192;2022-12-24T10:32:29;14.10;53.90
10300;DHT22;5195;48.562;9.192;2022-12-24T10:35:14;14.10;52.40
10300;DHT22;5195;48.562;9.192;2022-12-24T10:37:43;14.10;53.20
10300;DHT22;5195;48.562;9.192;2022-12-24T10:40:34;14.10;52.40
10300;DHT22;5195;48.562;9.192;2022-12-24T10:43:18;14.40;52.50
10300;DHT22;5195;48.562;9.192;2022-12-24T10:45:57;13.90;53.80
10300;DHT22;5195;48.562;9.192;2022-12-24T10:48:43;14.00;51.90
10300;DHT22;5195;48.562;9.192;2022-12-24T10:54:20;13.90;52.70
10300;DHT22;5195;48.562;9.192;2022-12-24T10:56:50;14.00;51.80
10300;DHT22;5195;48.562;9.192;2022-12-24T10:59:28;13.90;52.50
10300;DHT22;5195;48.562;9.192;2022-12-24T11:02:09;14.00;51.90
10300;DHT22;5195;48.562;9.192;2022-12-24T11:04:44;14.00;52.80
10300;DHT22;5195;48.562;9.192;2022-12-24T11:07:18;13.80;53.50
10300;DHT22;5195;48.562;9.192;2022-12-24T11:10:01;13.60;54.00
10300;DHT22;5195;48.562;9.192;2022-12-24T11:12:36;13.80;52.20
10300;DHT22;5195;48.562;9.192;2022-12-24T11:15:19;13.80;53.00
10300;DHT22;5195;48.562;9.192;2022-12-24T11:18:00;13.70;53.80
10300;DHT22;5195;48.562;9.192;2022-12-24T11:20:35;13.80;52.70
10300;DHT22;5195;48.562;9.192;2022-12-24T11:23:13;14.10;51.40
10300;DHT22;5195;48.562;9.192;2022-12-24T11:25:47;14.40;50.90
10300;DHT22;5195;48.562;9.192;2022-12-24T11:28:27;14.30;51.80
10300;DHT22;5195;48.562;9.192;2022-12-24T11:31:17;14.30;51.20
10300;DHT22;5195;48.562;9.192;2022-12-24T11:33:48;14.20;52.10
10300;DHT22;5195;48.562;9.192;2022-12-24T11:36:23;13.90;53.00
10300;DHT22;5195;48.562;9.192;2022-12-24T11:38:58;13.70;53.80
10300;DHT22;5195;48.562;9.192;2022-12-24T11:41:37;13.60;54.40
10300;DHT22;5195;48.562;9.192;2022-12-24T11:44:14;13.50;54.70
10300;DHT22;5195;48.562;9.192;2022-12-24T11:46:50;13.40;55.10
10300;DHT22;5195;48.562;9.192;2022-12-24T11:49:26;13.70;53.40
10300;DHT22;5195;48.562;9.192;2022-12-24T11:55:12;13.80;54.20
10300;DHT22;5195;48.562;9.192;2022-12-24T11:57:57;14.10;52.30
10300;DHT22;5195;48.562;9.192;2022-12-24T12:00:30;14.50;51.30
10300;DHT22;5195;48.562;9.192;2022-12-24T12:03:10;14.90;50.70
10300;DHT22;5195;48.562;9.192;2022-12-24T12:05:43;14.80;51.10
10300;DHT22;5195;48.562;9.192;2022-12-24T12:08:19;14.80;50.50
10300;DHT22;5195;48.562;9.192;2022-12-24T12:10:54;14.80;51.40
10300;DHT22;5195;48.562;9.192;2022-12-24T12:13:30;14.90;51.00
10300;DHT22;5195;48.562;9.192;2022-12-24T12:19:04;14.60;52.40
10300;DHT22;5195;48.562;9.192;2022-12-24T12:21:41;14.80;51.10
10300;DHT22;5195;48.562;9.192;2022-12-24T12:24:19;14.90;51.90
10300;DHT22;5195;48.562;9.192;2022-12-24T12:27:19;14.90;51.50
10300;DHT22;5195;48.562;9.192;2022-12-24T12:30:00;14.90;51.50
10300;DHT22;5195;48.562;9.192;2022-12-24T12:32:40;15.70;49.90
10300;DHT22;5195;48.562;9.192;2022-12-24T12:35:23;15.90;49.10
10300;DHT22;5195;48.562;9.192;2022-12-24T12:38:05;15.90;49.10
10300;DHT22;5195;48.562;9.192;2022-12-24T12:41:07;16.20;48.90
10300;DHT22;5195;48.562;9.192;2022-12-24T12:46:51;16.60;47.90
10300;DHT22;5195;48.562;9.192;2022-12-24T12:49:49;16.70;47.20
10300;DHT22;5195;48.562;9.192;2022-12-24T12:58:36;16.10;49.30
10300;DHT22;5195;48.562;9.192;2022-12-24T13:01:19;16.00;48.00
10300;DHT22;5195;48.562;9.192;2022-12-24T13:07:02;15.70;47.60
10300;DHT22;5195;48.562;9.192;2022-12-24T13:09:56;15.40;48.70
10300;DHT22;5195;48.562;9.192;2022-12-24T13:18:21;14.60;50.80
10300;DHT22;5195;48.562;9.192;2022-12-24T13:20:53;14.60;50.80
10300;DHT22;5195;48.562;9.192;2022-12-24T13:23:29;14.70;50.00
10300;DHT22;5195;48.562;9.192;2022-12-24T13:26:09;14.30;51.20
10300;DHT22;5195;48.562;9.192;2022-12-24T13:28:41;14.30;51.20
10300;DHT22;5195;48.562;9.192;2022-12-24T13:33:59;14.20;51.20
10300;DHT22;5195;48.562;9.192;2022-12-24T13:37:02;14.20;51.70
10300;DHT22;5195;48.562;9.192;2022-12-24T13:40:01;14.00;52.20
10300;DHT22;5195;48.562;9.192;2022-12-24T13:45:39;14.50;50.30
10300;DHT22;5195;48.562;9.192;2022-12-24T13:53:39;14.60;50.20
10300;DHT22;5195;48.562;9.192;2022-12-24T13:58:49;14.20;50.60
10300;DHT22;5195;48.562;9.192;2022-12-24T14:01:34;14.50;50.20
10300;DHT22;5195;48.562;9.192;2022-12-24T14:04:17;14.40;50.80
10300;DHT22;5195;48.562;9.192;2022-12-24T14:06:46;14.40;50.70
10300;DHT22;5195;48.562;9.192;2022-12-24T14:09:21;14.60;50.50
10300;DHT22;5195;48.562;9.192;2022-12-24T14:14:40;14.60;50.80
10300;DHT22;5195;48.562;9.192;2022-12-24T14:19:55;14.80;50.30
10300;DHT22;5195;48.562;9.192;2022-12-24T14:22:37;15.00;49.90
10300;DHT22;5195;48.562;9.192;2022-12-24T14:25:31;14.70;50.60
10300;DHT22;5195;48.562;9.192;2022-12-24T14:28:11;14.40;51.60
10300;DHT22;5195;48.562;9.192;2022-12-24T14:30:42;14.10;52.40
10300;DHT22;5195;48.562;9.192;2022-12-24T14:33:32;14.10;51.30
10300;DHT22;5195;48.562;9.192;2022-12-24T14:36:07;14.10;51.80
10300;DHT22;5195;48.562;9.192;2022-12-24T14:38:49;14.20;50.90
10300;DHT22;5195;48.562;9.192;2022-12-24T14:44:48;13.80;52.00
10300;DHT22;5195;48.562;9.192;2022-12-24T14:47:21;13.60;52.80
10300;DHT22;5195;48.562;9.192;2022-12-24T14:50:01;13.80;51.90
10300;DHT22;5195;48.562;9.192;2022-12-24T14:55:38;14.00;51.50
10300;DHT22;5195;48.562;9.192;2022-12-24T14:58:31;14.00;51.00
10300;DHT22;5195;48.562;9.192;2022-12-24T15:01:27;13.90;51.70
10300;DHT22;5195;48.562;9.192;2022-12-24T15:06:56;14.30;50.80
10300;DHT22;5195;48.562;9.192;2022-12-24T15:09:27;14.10;51.30
10300;DHT22;5195;48.562;9.192;2022-12-24T15:12:02;14.10;51.10
10300;DHT22;5195;48.562;9.192;2022-12-24T15:14:41;14.30;51.10
10300;DHT22;5195;48.562;9.192;2022-12-24T15:17:13;14.50;51.20
10300;DHT22;5195;48.562;9.192;2022-12-24T15:19:49;14.20;51.70
10300;DHT22;5195;48.562;9.192;2022-12-24T15:22:25;14.20;51.40
10300;DHT22;5195;48.562;9.192;2022-12-24T15:25:01;14.00;52.10
10300;DHT22;5195;48.562;9.192;2022-12-24T15:27:38;13.60;53.40
10300;DHT22;5195;48.562;9.192;2022-12-24T15:30:13;13.70;52.60
10300;DHT22;5195;48.562;9.192;2022-12-24T15:32:49;13.50;52.90
10300;DHT22;5195;48.562;9.192;2022-12-24T15:35:54;13.60;52.70
10300;DHT22;5195;48.562;9.192;2022-12-24T15:38:33;13.90;52.70
10300;DHT22;5195;48.562;9.192;2022-12-24T15:41:15;13.20;54.50
10300;DHT22;5195;48.562;9.192;2022-12-24T15:43:51;12.90;54.30
10300;DHT22;5195;48.562;9.192;2022-12-24T15:46:27;12.90;54.30
10300;DHT22;5195;48.562;9.192;2022-12-24T15:49:02;12.70;54.80
10300;DHT22;5195;48.562;9.192;2022-12-24T15:51:37;12.80;55.00
10300;DHT22;5195;48.562;9.192;2022-12-24T15:54:22;13.10;54.30
10300;DHT22;5195;48.562;9.192;2022-12-24T15:56:48;13.10;54.50
10300;DHT22;5195;48.562;9.192;2022-12-24T16:05:30;12.30;56.10
10300;DHT22;5195;48.562;9.192;2022-12-24T16:13:41;12.50;56.10
10300;DHT22;5195;48.562;9.192;2022-12-24T16:16:17;12.30;56.50
10300;DHT22;5195;48.562;9.192;2022-12-24T16:18:52;12.60;55.90
10300;DHT22;5195;48.562;9.192;2022-12-24T16:21:37;12.60;56.00
10300;DHT22;5195;48.562;9.192;2022-12-24T16:24:29;12.50;56.60
10300;DHT22;5195;48.562;9.192;2022-12-24T16:27:04;12.30;56.90
10300;DHT22;5195;48.562;9.192;2022-12-24T16:29:39;12.50;56.10
10300;DHT22;5195;48.562;9.192;2022-12-24T16:32:34;12.60;56.20
10300;DHT22;5195;48.562;9.192;2022-12-24T16:35:06;12.80;55.50
10300;DHT22;5195;48.562;9.192;2022-12-24T16:37:39;13.10;54.50
10300;DHT22;5195;48.562;9.192;2022-12-24T16:40:15;13.00;54.80
10300;DHT22;5195;48.562;9.192;2022-12-24T16:42:51;12.70;55.50
10300;DHT22;5195;48.562;9.192;2022-12-24T16:45:46;12.50;56.20
10300;DHT22;5195;48.562;9.192;2022-12-24T16:48:22;12.30;56.60
10300;DHT22;5195;48.562;9.192;2022-12-24T16:50:57;12.10;56.80
10300;DHT22;5195;48.562;9.192;2022-12-24T16:53:33;12.10;57.30
10300;DHT22;5195;48.562;9.192;2022-12-24T16:56:08;12.00;57.60
10300;DHT22;5195;48.562;9.192;2022-12-24T16:58:45;12.40;57.00
10300;DHT22;5195;48.562;9.192;2022-12-24T17:01:20;12.40;56.70
10300;DHT22;5195;48.562;9.192;2022-12-24T17:03:56;12.30;57.00
10300;DHT22;5195;48.562;9.192;2022-12-24T17:06:31;12.20;57.40
10300;DHT22;5195;48.562;9.192;2022-12-24T17:09:07;12.50;56.90
10300;DHT22;5195;48.562;9.192;2022-12-24T17:11:43;12.50;56.70
10300;DHT22;5195;48.562;9.192;2022-12-24T17:14:19;12.70;56.50
10300;DHT22;5195;48.562;9.192;2022-12-24T17:16:55;12.60;56.30
10300;DHT22;5195;48.562;9.192;2022-12-24T17:19:30;12.60;56.30
10300;DHT22;5195;48.562;9.192;2022-12-24T17:22:06;12.50;56.70
10300;DHT22;5195;48.562;9.192;2022-12-24T17:24:42;12.60;56.30
10300;DHT22;5195;48.562;9.192;2022-12-24T17:27:18;12.60;56.30
10300;DHT22;5195;48.562;9.192;2022-12-24T17:29:54;12.80;55.70
10300;DHT22;5195;48.562;9.192;2022-12-24T17:32:29;13.10;54.80
10300;DHT22;5195;48.562;9.192;2022-12-24T17:35:05;13.00;55.10
10300;DHT22;5195;48.562;9.192;2022-12-24T17:37:41;13.10;55.40
10300;DHT22;5195;48.562;9.192;2022-12-24T17:40:17;13.60;53.60
10300;DHT22;5195;48.562;9.192;2022-12-24T17:42:53;13.60;53.10
10300;DHT22;5195;48.562;9.192;2022-12-24T17:45:28;13.40;53.60
10300;DHT22;5195;48.562;9.192;2022-12-24T17:48:04;13.10;54.40
10300;DHT22;5195;48.562;9.192;2022-12-24T17:50:40;13.20;54.40
10300;DHT22;5195;48.562;9.192;2022-12-24T17:53:16;13.20;54.80
10300;DHT22;5195;48.562;9.192;2022-12-24T17:55:52;13.20;54.80
10300;DHT22;5195;48.562;9.192;2022-12-24T17:58:27;13.50;54.40
10300;DHT22;5195;48.562;9.192;2022-12-24T18:01:03;13.70;54.10
10300;DHT22;5195;48.562;9.192;2022-12-24T18:03:39;13.60;54.00
10300;DHT22;5195;48.562;9.192;2022-12-24T18:06:15;13.60;54.20